createdAt,value
2019-04-25T00:02:05.445Z,97154.70
2019-04-25T00:04:38.672Z,97156.02
2019-04-25T00:07:12.017Z,97146.03
2019-04-25T00:09:51.718Z,97153.18
2019-04-25T00:12:25.273Z,97155.21
2019-04-25T00:14:57.818Z,97152.76
2019-04-25T00:17:31.819Z,97151.05
2019-04-25T00:20:07.110Z,97148.66
2019-04-25T00:22:45.898Z,97149.64
2019-04-25T00:25:45.393Z,97148.23
2019-04-25T00:28:16.346Z,97145.27
2019-04-25T00:30:48.464Z,97149.48
2019-04-25T00:33:21.566Z,97145.82
2019-04-25T00:35:53.698Z,97150.32
2019-04-25T00:38:26.156Z,97156.02
2019-04-25T00:40:58.318Z,97160.93
2019-04-25T00:43:31.528Z,97161.66
2019-04-25T00:46:03.676Z,97165.37
2019-04-25T00:48:36.428Z,97168.45
2019-04-25T00:51:08.859Z,97166.73
2019-04-25T00:53:42.665Z,97172.40
2019-04-25T00:56:14.603Z,97180.08
2019-04-25T00:59:05.492Z,97178.77
2019-04-25T01:01:59.363Z,97177.72
2019-04-25T01:04:33.880Z,97189.95
2019-04-25T01:07:05.836Z,97200.30
2019-04-25T01:09:38.190Z,97200.11
2019-04-25T01:12:11.650Z,97191.74
2019-04-25T01:14:45.403Z,97200.52
2019-04-25T01:17:17.660Z,97192.56
2019-04-25T01:19:49.578Z,97192.78
2019-04-25T01:22:23.160Z,97192.98
2019-04-25T01:24:55.999Z,97190.86
2019-04-25T01:27:28.144Z,97197.52
2019-04-25T01:30:00.061Z,97203.70
2019-04-25T01:32:36.912Z,97211.30
2019-04-25T01:35:28.848Z,97212.30
2019-04-25T01:38:19.730Z,97215.88
2019-04-25T01:41:09.121Z,97207.98
2019-04-25T01:43:53.128Z,97215.56
2019-04-25T01:46:24.469Z,97214.57
2019-04-25T01:48:56.854Z,97218.09
2019-04-25T01:51:29.208Z,97220.34
2019-04-25T01:54:01.598Z,97214.94
2019-04-25T01:56:33.830Z,97217.03
2019-04-25T01:59:06.085Z,97216.97
2019-04-25T02:01:40.069Z,97217.27
2019-04-25T02:04:13.215Z,97224.17
2019-04-25T02:06:45.223Z,97218.42
2019-04-25T02:09:17.813Z,97221.00
2019-04-25T02:12:15.499Z,97227.34
2019-04-25T02:14:48.386Z,97223.06
2019-04-25T02:17:20.477Z,97223.45
2019-04-25T02:19:54.546Z,97223.62
2019-04-25T02:22:26.550Z,97228.91
2019-04-25T02:24:59.029Z,97231.20
2019-04-25T02:27:30.946Z,97235.63
2019-04-25T02:30:04.337Z,97241.11
2019-04-25T02:32:37.102Z,97244.48
2019-04-25T02:35:10.351Z,97242.73
2019-04-25T02:37:42.355Z,97247.20
2019-04-25T02:40:17.867Z,97252.43
2019-04-25T02:42:49.804Z,97256.08
2019-04-25T02:45:40.725Z,97257.03
2019-04-25T02:48:30.175Z,97255.17
2019-04-25T02:51:08.469Z,97252.95
2019-04-25T02:53:44.709Z,97255.58
2019-04-25T02:56:29.887Z,97251.89
2019-04-25T02:58:50.755Z,97259.20
2019-04-25T03:01:26.129Z,97259.97
2019-04-25T03:03:57.951Z,97259.20
2019-04-25T03:06:31.944Z,97267.81
2019-04-25T03:09:06.454Z,97270.33
2019-04-25T03:11:38.009Z,97271.43
2019-04-25T03:14:10.542Z,97273.73
2019-04-25T03:16:44.854Z,97280.02
2019-04-25T03:19:34.420Z,97279.91
2019-04-25T03:22:11.040Z,97287.83
2019-04-25T03:24:41.656Z,97280.05
2019-04-25T03:27:14.332Z,97277.25
2019-04-25T03:29:46.256Z,97276.90
2019-04-25T03:32:19.815Z,97288.53
2019-04-25T03:34:53.130Z,97294.05
2019-04-25T03:37:26.618Z,97297.00
2019-04-25T03:39:58.658Z,97297.86
2019-04-25T03:42:30.746Z,97306.69
2019-04-25T03:45:04.696Z,97300.12
2019-04-25T03:47:37.024Z,97303.30
2019-04-25T03:50:09.868Z,97309.52
2019-04-25T03:52:43.599Z,97307.31
2019-04-25T03:55:15.890Z,97306.64
2019-04-25T03:57:47.848Z,97302.45
2019-04-25T04:00:19.869Z,97305.16
2019-04-25T04:02:51.818Z,97300.09
2019-04-25T04:05:23.844Z,97305.48
2019-04-25T04:07:55.793Z,97312.08
2019-04-25T04:10:28.352Z,97308.48
2019-04-25T04:13:00.762Z,97318.64
2019-04-25T04:15:33.525Z,97318.86
2019-04-25T04:18:20.099Z,97320.72
2019-04-25T04:21:16.210Z,97323.50
2019-04-25T04:24:06.471Z,97333.72
2019-04-25T04:26:38.553Z,97328.66
2019-04-25T04:29:10.526Z,97327.41
2019-04-25T04:31:43.135Z,97326.91
2019-04-25T04:34:15.630Z,97328.78
2019-04-25T04:36:47.574Z,97327.23
2019-04-25T04:39:19.531Z,97323.97
2019-04-25T04:41:51.506Z,97329.69
2019-04-25T04:44:24.176Z,97331.27
2019-04-25T04:46:56.477Z,97331.53
2019-04-25T04:49:31.628Z,97335.95
2019-04-25T04:52:04.525Z,97337.23
2019-04-25T04:54:37.508Z,97339.86
2019-04-25T04:57:26.093Z,97343.79
2019-04-25T04:59:43.968Z,97339.94
2019-04-25T05:02:40.982Z,97344.42
2019-04-25T05:05:34.301Z,97354.22
2019-04-25T05:08:12.981Z,97353.20
2019-04-25T05:10:45.994Z,97351.03
2019-04-25T05:13:18.337Z,97350.31
2019-04-25T05:15:50.278Z,97354.95
2019-04-25T05:18:34.595Z,97358.96
2019-04-25T05:20:56.163Z,97366.09
2019-04-25T05:23:28.925Z,97365.08
2019-04-25T05:26:00.876Z,97373.17
2019-04-25T05:28:33.481Z,97377.34
2019-04-25T05:31:19.591Z,97379.66
2019-04-25T05:33:53.506Z,97382.16
2019-04-25T05:36:29.302Z,97385.94
2019-04-25T05:39:01.263Z,97381.58
2019-04-25T05:41:39.682Z,97381.06
2019-04-25T05:44:11.623Z,97377.16
2019-04-25T05:46:45.318Z,97380.64
2019-04-25T05:49:17.816Z,97381.02
2019-04-25T05:51:50.642Z,97381.78
2019-04-25T05:54:24.492Z,97378.69
2019-04-25T05:56:56.739Z,97378.50
2019-04-25T05:59:28.774Z,97379.02
2019-04-25T06:02:01.165Z,97373.30
2019-04-25T06:04:33.593Z,97373.72
2019-04-25T06:07:05.805Z,97378.14
2019-04-25T06:09:56.574Z,97371.48
2019-04-25T06:12:49.418Z,97371.65
2019-04-25T06:15:24.892Z,97375.48
2019-04-25T06:18:21.552Z,97374.98
2019-04-25T06:20:55.561Z,97372.76
2019-04-25T06:23:54.432Z,97376.92
2019-04-25T06:26:35.074Z,97374.93
2019-04-25T06:29:01.177Z,97374.01
2019-04-25T06:31:34.192Z,97367.20
2019-04-25T06:34:06.787Z,97367.28
2019-04-25T06:36:38.872Z,97361.55
2019-04-25T06:39:11.840Z,97355.95
2019-04-25T06:41:44.346Z,97356.13
2019-04-25T06:44:34.431Z,97354.40
2019-04-25T06:47:26.712Z,97346.20
2019-04-25T06:49:59.755Z,97347.18
2019-04-25T06:52:33.793Z,97347.37
2019-04-25T06:55:07.260Z,97347.86
2019-04-25T06:57:39.669Z,97343.16
2019-04-25T07:00:14.172Z,97338.73
2019-04-25T07:02:46.259Z,97342.24
2019-04-25T07:05:31.009Z,97342.69
2019-04-25T07:07:54.802Z,97344.95
2019-04-25T07:10:27.506Z,97330.19
2019-04-25T07:13:00.127Z,97330.59
2019-04-25T07:15:34.106Z,97326.90
2019-04-25T07:18:06.989Z,97322.85
2019-04-25T07:20:39.264Z,97319.83
2019-04-25T07:23:11.474Z,97313.53
2019-04-25T07:25:50.035Z,97313.73
2019-04-25T07:28:50.387Z,97305.95
2019-04-25T07:31:41.261Z,97311.44
2019-04-25T07:34:17.555Z,97309.45
2019-04-25T07:36:50.113Z,97299.37
2019-04-25T07:39:23.608Z,97296.75
2019-04-25T07:41:56.680Z,97294.72
2019-04-25T07:44:44.267Z,97289.05
2019-04-25T07:47:04.040Z,97294.99
2019-04-25T07:49:36.105Z,97295.13
2019-04-25T07:52:08.248Z,97294.19
2019-04-25T07:54:40.992Z,97297.92
2019-04-25T07:57:13.655Z,97299.50
2019-04-25T07:59:45.807Z,97287.57
2019-04-25T08:02:18.126Z,97287.52
2019-04-25T08:04:50.627Z,97284.91
2019-04-25T08:07:24.057Z,97285.73
2019-04-25T08:09:56.883Z,97274.99
2019-04-25T08:12:29.001Z,97280.05
2019-04-25T08:15:09.354Z,97278.59
2019-04-25T08:18:00.494Z,97272.05
2019-04-25T08:20:34.449Z,97268.40
2019-04-25T08:23:08.346Z,97262.57
2019-04-25T08:25:40.865Z,97265.15
2019-04-25T08:28:13.772Z,97263.80
2019-04-25T08:30:45.950Z,97255.14
2019-04-25T08:33:18.155Z,97253.48
2019-04-25T08:36:04.318Z,97248.94
2019-04-25T08:38:24.297Z,97251.70
2019-04-25T08:40:57.067Z,97250.23
2019-04-25T08:43:29.994Z,97246.35
2019-04-25T08:46:04.226Z,97237.33
2019-04-25T08:48:55.203Z,97236.20
2019-04-25T08:51:31.430Z,97233.65
2019-04-25T08:54:13.823Z,97227.73
2019-04-25T08:56:46.946Z,97220.02
2019-04-25T08:59:42.386Z,97221.44
2019-04-25T09:02:24.244Z,97223.77
2019-04-25T09:05:14.457Z,97211.42
2019-04-25T09:07:47.507Z,97206.72
2019-04-25T09:10:20.066Z,97209.67
2019-04-25T09:12:53.681Z,97203.04
2019-04-25T09:15:26.067Z,97198.20
2019-04-25T09:17:59.566Z,97206.55
2019-04-25T09:20:31.678Z,97203.47
2019-04-25T09:23:04.911Z,97203.20
2019-04-25T09:25:37.387Z,97201.19
2019-04-25T09:28:09.800Z,97202.55
2019-04-25T09:30:42.989Z,97211.48
2019-04-25T09:33:19.042Z,97196.23
2019-04-25T09:35:51.153Z,97197.22
2019-04-25T09:38:24.400Z,97191.16
2019-04-25T09:40:57.635Z,97188.83
2019-04-25T09:43:30.240Z,97184.69
2019-04-25T09:46:10.067Z,97186.63
2019-04-25T09:48:54.699Z,97178.85
2019-04-25T09:51:30.163Z,97177.77
2019-04-25T09:54:15.475Z,97177.23
2019-04-25T09:56:49.576Z,97173.11
2019-04-25T09:59:28.076Z,97167.91
2019-04-25T10:01:58.647Z,97163.88
2019-04-25T10:04:31.065Z,97162.79
2019-04-25T10:07:03.957Z,97154.45
2019-04-25T10:09:37.504Z,97156.22
2019-04-25T10:12:09.724Z,97152.25
2019-04-25T10:15:04.463Z,97142.60
2019-04-25T10:17:37.738Z,97133.08
2019-04-25T10:20:10.563Z,97136.24
2019-04-25T10:22:44.558Z,97131.53
2019-04-25T10:25:19.324Z,97126.69
2019-04-25T10:27:52.004Z,97130.20
2019-04-25T10:30:26.018Z,97123.64
2019-04-25T10:32:58.728Z,97123.56
2019-04-25T10:35:34.220Z,97122.22
2019-04-25T10:38:05.653Z,97121.48
2019-04-25T10:40:38.496Z,97118.58
2019-04-25T10:43:11.905Z,97111.30
2019-04-25T10:45:45.980Z,97116.28
2019-04-25T10:48:19.387Z,97107.36
2019-04-25T10:50:55.692Z,97104.45
2019-04-25T10:53:28.660Z,97098.95
2019-04-25T10:56:01.426Z,97094.88
2019-04-25T10:58:35.297Z,97087.63
2019-04-25T11:01:07.931Z,97085.70
2019-04-25T11:04:10.671Z,97087.22
2019-04-25T11:06:45.331Z,97079.52
2019-04-25T11:09:28.483Z,97063.88
2019-04-25T11:12:01.843Z,97063.64
2019-04-25T11:14:34.390Z,97065.34
2019-04-25T11:17:06.766Z,97063.52
2019-04-25T11:19:38.803Z,97059.89
2019-04-25T11:22:11.182Z,97063.62
2019-04-25T11:24:43.795Z,97053.56
2019-04-25T11:27:16.255Z,97047.88
2019-04-25T11:29:48.596Z,97054.88
2019-04-25T11:32:23.802Z,97046.91
2019-04-25T11:34:56.099Z,97043.23
2019-04-25T11:37:30.531Z,97035.20
2019-04-25T11:40:15.071Z,97028.05
2019-04-25T11:42:48.226Z,97028.44
2019-04-25T11:45:20.718Z,97024.10
2019-04-25T11:47:54.395Z,97021.30
2019-04-25T11:50:26.934Z,97032.61
2019-04-25T11:52:59.010Z,97031.38
2019-04-25T11:55:32.271Z,97034.50
2019-04-25T11:58:05.222Z,97029.42
2019-04-25T12:00:37.989Z,97025.45
2019-04-25T12:03:10.390Z,97023.47
2019-04-25T12:05:45.454Z,97015.92
2019-04-25T12:08:16.857Z,97020.98
2019-04-25T12:10:49.456Z,97012.20
2019-04-25T12:13:24.241Z,97005.11
2019-04-25T12:15:56.856Z,97009.58
2019-04-25T12:18:28.938Z,97004.08
2019-04-25T12:21:01.607Z,97006.93
2019-04-25T12:23:33.995Z,96999.88
2019-04-25T12:26:06.646Z,96999.89
2019-04-25T12:28:38.931Z,96997.69
2019-04-25T12:31:11.045Z,96998.55
2019-04-25T12:33:46.342Z,96998.37
2019-04-25T12:36:17.707Z,96984.72
2019-04-25T12:38:49.839Z,96986.48
2019-04-25T12:41:22.372Z,96980.34
2019-04-25T12:44:11.863Z,96983.61
2019-04-25T12:46:46.278Z,96981.29
2019-04-25T12:49:18.697Z,96981.61
2019-04-25T12:51:50.911Z,96980.27
2019-04-25T12:54:23.856Z,96967.72
2019-04-25T12:56:57.209Z,96969.98
2019-04-25T12:59:30.046Z,96967.59
2019-04-25T13:02:04.465Z,96970.54
2019-04-25T13:04:36.291Z,96964.80
2019-04-25T13:07:09.110Z,96957.27
2019-04-25T13:09:41.202Z,96961.83
2019-04-25T13:12:14.955Z,96958.97
2019-04-25T13:14:47.322Z,96957.83
2019-04-25T13:17:19.530Z,96956.94
2019-04-25T13:19:51.618Z,96959.73
2019-04-25T13:22:23.912Z,96953.55
2019-04-25T13:24:56.349Z,96954.33
2019-04-25T13:27:47.587Z,96952.20
2019-04-25T13:30:59.614Z,96948.34
2019-04-25T13:33:46.019Z,96947.97
2019-04-25T13:36:19.461Z,96944.25
2019-04-25T13:38:51.717Z,96953.52
2019-04-25T13:41:24.976Z,96947.05
2019-04-25T13:43:57.745Z,96953.69
2019-04-25T13:46:30.025Z,96947.80
2019-04-25T13:49:02.148Z,96944.33
2019-04-25T13:51:34.983Z,96939.09
2019-04-25T13:54:07.311Z,96939.09
2019-04-25T13:56:40.693Z,96947.91
2019-04-25T13:59:13.053Z,96944.45
2019-04-25T14:01:45.154Z,96936.85
2019-04-25T14:04:17.928Z,96937.52
2019-04-25T14:06:49.993Z,96934.30
2019-04-25T14:09:24.544Z,96925.54
2019-04-25T14:11:57.230Z,96927.64
2019-04-25T14:14:30.226Z,96927.04
2019-04-25T14:17:24.763Z,96920.89
2019-04-25T14:20:32.671Z,96911.30
2019-04-25T14:23:07.412Z,96915.47
2019-04-25T14:25:40.042Z,96903.83
2019-04-25T14:28:14.072Z,96904.00
2019-04-25T14:30:46.577Z,96904.45
2019-04-25T14:33:18.991Z,96902.35
2019-04-25T14:35:54.629Z,96897.16
2019-04-25T14:38:26.598Z,96889.66
2019-04-25T14:41:00.252Z,96885.58
2019-04-25T14:43:32.476Z,96890.87
2019-04-25T14:46:05.479Z,96880.90
2019-04-25T14:48:37.972Z,96882.88
2019-04-25T14:51:10.840Z,96883.03
2019-04-25T14:53:43.523Z,96879.72
2019-04-25T14:56:49.648Z,96874.45
2019-04-25T14:59:23.601Z,96867.50
2019-04-25T15:01:56.860Z,96863.41
2019-04-25T15:04:30.118Z,96854.36
2019-04-25T15:07:03.042Z,96852.97
2019-04-25T15:09:35.400Z,96855.77
2019-04-25T15:12:07.619Z,96850.61
2019-04-25T15:14:40.032Z,96845.48
2019-04-25T15:17:13.250Z,96842.12
2019-04-25T15:19:46.768Z,96845.34
2019-04-25T15:22:19.327Z,96843.77
2019-04-25T15:24:51.395Z,96843.83
2019-04-25T15:27:24.139Z,96841.70
2019-04-25T15:29:58.057Z,96839.66
2019-04-25T15:32:33.422Z,96834.37
2019-04-25T15:35:07.621Z,96827.41
2019-04-25T15:37:48.933Z,96825.53
2019-04-25T15:40:27.666Z,96827.93
2019-04-25T15:43:34.442Z,96817.73
2019-04-25T15:46:32.311Z,96815.80
2019-04-25T15:49:04.630Z,96812.08
2019-04-25T15:51:37.641Z,96809.52
2019-04-25T15:54:11.439Z,96814.58
2019-04-25T15:56:45.034Z,96811.95
2019-04-25T15:59:17.536Z,96807.67
2019-04-25T16:01:50.038Z,96809.08
2019-04-25T16:04:22.151Z,96806.82
2019-04-25T16:06:55.424Z,96806.53
2019-04-25T16:09:29.662Z,96801.63
2019-04-25T16:12:02.264Z,96791.93
2019-04-25T16:14:35.597Z,96791.28
2019-04-25T16:17:07.814Z,96793.85
2019-04-25T16:19:39.937Z,96789.95
2019-04-25T16:22:11.942Z,96780.66
2019-04-25T16:24:45.369Z,96782.88
2019-04-25T16:27:18.275Z,96780.58
2019-04-25T16:29:50.491Z,96775.13
2019-04-25T16:32:24.537Z,96774.01
2019-04-25T16:34:56.651Z,96770.22
2019-04-25T16:37:30.099Z,96771.89
2019-04-25T16:40:02.745Z,96771.55
2019-04-25T16:42:35.935Z,96769.72
2019-04-25T16:45:09.425Z,96765.50
2019-04-25T16:47:41.895Z,96765.66
2019-04-25T16:50:14.801Z,96764.58
2019-04-25T16:52:47.291Z,96761.91
2019-04-25T16:55:20.006Z,96758.20
2019-04-25T16:57:52.079Z,96758.39
2019-04-25T17:00:41.908Z,96750.23
2019-04-25T17:03:14.223Z,96748.11
2019-04-25T17:05:47.414Z,96750.60
2019-04-25T17:08:19.896Z,96754.48
2019-04-25T17:10:52.010Z,96746.24
2019-04-25T17:13:26.082Z,96746.76
2019-04-25T17:16:29.570Z,96750.03
2019-04-25T17:19:06.689Z,96747.82
2019-04-25T17:21:39.463Z,96739.08
2019-04-25T17:24:11.552Z,96742.56
2019-04-25T17:26:44.087Z,96744.95
2019-04-25T17:29:20.003Z,96744.73
2019-04-25T17:32:16.210Z,96745.84
2019-04-25T17:34:59.337Z,96750.98
2019-04-25T17:37:38.452Z,96754.92
2019-04-25T17:40:14.661Z,96753.69
2019-04-25T17:42:46.805Z,96755.88
2019-04-25T17:45:23.572Z,96750.54
2019-04-25T17:47:55.771Z,96754.62
2019-04-25T17:50:27.890Z,96756.27
2019-04-25T17:53:00.856Z,96757.52
2019-04-25T17:55:33.713Z,96754.73
2019-04-25T17:58:06.252Z,96751.80
2019-04-25T18:00:40.441Z,96750.14
2019-04-25T18:03:13.365Z,96750.21
2019-04-25T18:05:46.057Z,96748.34
2019-04-25T18:08:18.631Z,96750.74
2019-04-25T18:10:51.108Z,96748.73
2019-04-25T18:13:23.785Z,96752.81
2019-04-25T18:16:05.402Z,96757.59
2019-04-25T18:18:47.178Z,96754.42
2019-04-25T18:21:19.306Z,96758.25
2019-04-25T18:24:08.996Z,96757.23
2019-04-25T18:26:49.837Z,96761.59
2019-04-25T18:29:22.765Z,96764.97
2019-04-25T18:31:55.091Z,96764.25
2019-04-25T18:34:33.131Z,96769.42
2019-04-25T18:37:23.441Z,96771.59
2019-04-25T18:40:04.481Z,96776.80
2019-04-25T18:43:14.279Z,96786.20
2019-04-25T18:45:50.791Z,96786.69
2019-04-25T18:48:23.892Z,96784.49
2019-04-25T18:50:56.863Z,96787.20
2019-04-25T18:53:50.903Z,96785.62
2019-04-25T18:56:33.971Z,96796.96
2019-04-25T18:59:43.988Z,96796.61
2019-04-25T19:02:36.252Z,96802.75
2019-04-25T19:05:27.769Z,96800.69
2019-04-25T19:08:12.610Z,96807.98
2019-04-25T19:10:45.111Z,96810.84
2019-04-25T19:13:18.273Z,96813.15
2019-04-25T19:15:51.520Z,96813.97
2019-04-25T19:18:24.252Z,96823.62
2019-04-25T19:20:56.724Z,96826.39
2019-04-25T19:23:29.767Z,96826.05
2019-04-25T19:26:01.846Z,96828.49
2019-04-25T19:28:34.703Z,96834.14
2019-04-25T19:31:07.217Z,96827.30
2019-04-25T19:33:40.666Z,96825.88
2019-04-25T19:36:19.130Z,96828.02
2019-04-25T19:38:50.477Z,96823.66
2019-04-25T19:41:45.025Z,96826.78
2019-04-25T19:44:21.585Z,96830.33
2019-04-25T19:46:54.582Z,96831.09
2019-04-25T19:49:27.378Z,96830.98
2019-04-25T19:51:59.899Z,96830.87
2019-04-25T19:54:32.040Z,96835.44
2019-04-25T19:57:04.876Z,96831.55
2019-04-25T19:59:38.238Z,96835.23
2019-04-25T20:02:17.605Z,96836.07
2019-04-25T20:04:58.074Z,96833.00
2019-04-25T20:07:49.519Z,96835.34
2019-04-25T20:10:42.804Z,96832.56
2019-04-25T20:13:16.628Z,96825.94
2019-04-25T20:15:49.548Z,96825.73
2019-04-25T20:18:22.785Z,96825.17
2019-04-25T20:20:57.035Z,96826.75
2019-04-25T20:23:30.054Z,96830.41
2019-04-25T20:26:02.618Z,96836.50
2019-04-25T20:28:35.469Z,96838.75
2019-04-25T20:31:07.996Z,96836.86
2019-04-25T20:33:40.318Z,96839.33
2019-04-25T20:36:17.965Z,96838.87
2019-04-25T20:38:47.201Z,96841.25
2019-04-25T20:41:19.782Z,96842.32
2019-04-25T20:43:52.877Z,96845.91
2019-04-25T20:46:25.030Z,96850.12
2019-04-25T20:48:57.110Z,96850.64
2019-04-25T20:51:29.649Z,96850.97
2019-04-25T20:54:02.158Z,96859.91
2019-04-25T20:56:34.274Z,96858.92
2019-04-25T20:59:06.442Z,96862.52
2019-04-25T21:01:38.974Z,96863.36
2019-04-25T21:04:29.790Z,96872.80
2019-04-25T21:07:02.912Z,96879.69
2019-04-25T21:09:34.980Z,96879.83
2019-04-25T21:12:07.754Z,96882.77
2019-04-25T21:14:52.814Z,96880.44
2019-04-25T21:17:46.728Z,96880.84
2019-04-25T21:20:19.229Z,96879.27
2019-04-25T21:22:53.732Z,96886.24
2019-04-25T21:25:26.227Z,96888.23
2019-04-25T21:27:59.527Z,96885.01
2019-04-25T21:30:32.043Z,96884.16
2019-04-25T21:33:04.673Z,96885.53
2019-04-25T21:35:37.792Z,96885.09
2019-04-25T21:38:09.915Z,96886.52
2019-04-25T21:40:59.936Z,96890.80
2019-04-25T21:43:36.748Z,96888.16
2019-04-25T21:46:09.142Z,96900.12
2019-04-25T21:48:41.775Z,96905.67
2019-04-25T21:51:32.550Z,96906.53
2019-04-25T21:54:05.732Z,96909.33
2019-04-25T21:56:38.003Z,96908.23
2019-04-25T21:59:10.429Z,96912.63
2019-04-25T22:01:44.352Z,96909.69
2019-04-25T22:04:16.470Z,96916.32
2019-04-25T22:06:49.173Z,96923.27
2019-04-25T22:09:23.043Z,96933.12
2019-04-25T22:11:56.346Z,96937.81
2019-04-25T22:14:29.442Z,96968.54
2019-04-25T22:17:01.936Z,96963.78
2019-04-25T22:19:34.228Z,96968.03
2019-04-25T22:22:06.904Z,96970.72
2019-04-25T22:24:39.794Z,96975.83
2019-04-25T22:27:18.463Z,96983.86
2019-04-25T22:29:58.795Z,96997.91
2019-04-25T22:32:57.121Z,97002.07
2019-04-25T22:35:59.336Z,97004.00
2019-04-25T22:38:31.954Z,97011.28
2019-04-25T22:41:04.175Z,97014.03
2019-04-25T22:43:38.640Z,97015.79
2019-04-25T22:46:10.908Z,97015.77
2019-04-25T22:48:49.306Z,97018.36
2019-04-25T22:51:21.417Z,97015.66
2019-04-25T22:53:53.695Z,97014.20
2019-04-25T22:56:26.670Z,97014.23
2019-04-25T22:58:59.172Z,97011.16
2019-04-25T23:01:49.870Z,97010.20
2019-04-25T23:04:34.574Z,97008.28
2019-04-25T23:07:06.688Z,97011.88
2019-04-25T23:09:39.590Z,97021.02
2019-04-25T23:12:12.692Z,97035.98
2019-04-25T23:14:45.043Z,97041.84
2019-04-25T23:17:17.153Z,97031.97
2019-04-25T23:19:50.165Z,97024.41
2019-04-25T23:22:22.274Z,97035.30
2019-04-25T23:24:59.758Z,97034.34
2019-04-25T23:27:49.294Z,97040.34
2019-04-25T23:30:23.743Z,97049.25
2019-04-25T23:32:55.866Z,97039.89
2019-04-25T23:35:31.194Z,97037.78
2019-04-25T23:38:02.007Z,97034.88
2019-04-25T23:40:34.658Z,97035.70
2019-04-25T23:43:07.521Z,97040.58
2019-04-25T23:45:39.951Z,97042.67
2019-04-25T23:48:12.436Z,97043.02
2019-04-25T23:50:44.455Z,97041.41
2019-04-25T23:53:17.106Z,97037.53
2019-04-25T23:55:49.269Z,97042.71
2019-04-25T23:58:21.792Z,97042.39
